sensor_id;sensor_type;location;lat;lon;timestamp;temperature;humidity
5848;DHT22;8756;49.29324300;8.70599800;2023-04-03T00:01:37;5.10;99.90
5848;DHT22;8756;49.29324300;8.70599800;2023-04-03T00:04:04;5.00;99.90
5848;DHT22;8756;49.29324300;8.70599800;2023-04-03T00:06:31;4.90;99.90
5848;DHT22;8756;49.29324300;8.70599800;2023-04-03T00:08:57;4.90;99.90
5848;DHT22;8756;49.29324300;8.70599800;2023-04-03T00:11:23;4.90;99.90
5848;DHT22;8756;49.29324300;8.70599800;2023-04-03T00:13:49;4.90;99.90
5848;DHT22;8756;49.29324300;8.70599800;2023-04-03T00:16:15;4.80;99.90
5848;DHT22;8756;49.29324300;8.70599800;2023-04-03T00:18:41;4.70;99.90
5848;DHT22;8756;49.29324300;8.70599800;2023-04-03T00:21:07;4.70;99.90
5848;DHT22;8756;49.29324300;8.70599800;2023-04-03T00:23:35;4.70;99.90
5848;DHT22;8756;49.29324300;8.70599800;2023-04-03T00:26:01;4.60;99.90
5848;DHT22;8756;49.29324300;8.70599800;2023-04-03T00:28:29;4.60;99.90
5848;DHT22;8756;49.29324300;8.70599800;2023-04-03T00:30:55;4.60;99.90
5848;DHT22;8756;49.29324300;8.70599800;2023-04-03T00:33:21;4.60;99.90
5848;DHT22;8756;49.29324300;8.70599800;2023-04-03T00:35:50;4.50;99.90
5848;DHT22;8756;49.29324300;8.70599800;2023-04-03T00:38:16;4.50;99.90
5848;DHT22;8756;49.29324300;8.70599800;2023-04-03T00:40:45;4.40;99.90
5848;DHT22;8756;49.29324300;8.70599800;2023-04-03T00:43:24;4.40;99.90
5848;DHT22;8756;49.29324300;8.70599800;2023-04-03T00:45:53;4.30;99.90
5848;DHT22;8756;49.29324300;8.70599800;2023-04-03T00:48:44;4.30;99.90
5848;DHT22;8756;49.29324300;8.70599800;2023-04-03T00:51:16;4.20;99.90
5848;DHT22;8756;49.29324300;8.70599800;2023-04-03T00:53:49;4.20;99.90
5848;DHT22;8756;49.29324300;8.70599800;2023-04-03T00:56:18;4.20;99.90
5848;DHT22;8756;49.29324300;8.70599800;2023-04-03T00:59:11;4.10;99.90
5848;DHT22;8756;49.29324300;8.70599800;2023-04-03T01:01:37;4.20;99.90
5848;DHT22;8756;49.29324300;8.70599800;2023-04-03T01:04:04;4.20;99.90
5848;DHT22;8756;49.29324300;8.70599800;2023-04-03T01:06:35;4.10;99.90
5848;DHT22;8756;49.29324300;8.70599800;2023-04-03T01:09:03;4.10;99.90
5848;DHT22;8756;49.29324300;8.70599800;2023-04-03T01:11:29;4.10;99.90
5848;DHT22;8756;49.29324300;8.70599800;2023-04-03T01:13:55;4.10;99.90
5848;DHT22;8756;49.29324300;8.70599800;2023-04-03T01:16:21;4.10;99.90
5848;DHT22;8756;49.29324300;8.70599800;2023-04-03T01:18:47;4.10;99.90
5848;DHT22;8756;49.29324300;8.70599800;2023-04-03T01:21:29;4.10;99.90
5848;DHT22;8756;49.29324300;8.70599800;2023-04-03T01:27:03;4.00;99.90
5848;DHT22;8756;49.29324300;8.70599800;2023-04-03T01:29:29;4.00;99.90
5848;DHT22;8756;49.29324300;8.70599800;2023-04-03T01:32:00;3.90;99.90
5848;DHT22;8756;49.29324300;8.70599800;2023-04-03T01:34:28;3.90;99.90
5848;DHT22;8756;49.29324300;8.70599800;2023-04-03T01:36:55;3.90;99.90
5848;DHT22;8756;49.29324300;8.70599800;2023-04-03T01:39:21;3.90;99.90
5848;DHT22;8756;49.29324300;8.70599800;2023-04-03T01:41:47;3.90;99.90
5848;DHT22;8756;49.29324300;8.70599800;2023-04-03T01:44:14;3.80;99.90
5848;DHT22;8756;49.29324300;8.70599800;2023-04-03T01:46:40;3.80;99.90
5848;DHT22;8756;49.29324300;8.70599800;2023-04-03T01:49:07;3.80;99.90
5848;DHT22;8756;49.29324300;8.70599800;2023-04-03T01:51:33;3.70;99.90
5848;DHT22;8756;49.29324300;8.70599800;2023-04-03T01:53:59;3.70;99.90
5848;DHT22;8756;49.29324300;8.70599800;2023-04-03T01:56:25;3.60;99.90
5848;DHT22;8756;49.29324300;8.70599800;2023-04-03T01:58:50;3.70;99.90
5848;DHT22;8756;49.29324300;8.70599800;2023-04-03T02:01:16;3.60;99.90
5848;DHT22;8756;49.29324300;8.70599800;2023-04-03T02:03:42;3.60;99.90
5848;DHT22;8756;49.29324300;8.70599800;2023-04-03T02:06:07;3.60;99.90
5848;DHT22;8756;49.29324300;8.70599800;2023-04-03T02:08:33;3.60;99.90
5848;DHT22;8756;49.29324300;8.70599800;2023-04-03T02:10:59;3.60;99.90
5848;DHT22;8756;49.29324300;8.70599800;2023-04-03T02:13:25;3.50;99.90
5848;DHT22;8756;49.29324300;8.70599800;2023-04-03T02:15:50;3.50;99.90
5848;DHT22;8756;49.29324300;8.70599800;2023-04-03T02:18:17;3.50;99.90
5848;DHT22;8756;49.29324300;8.70599800;2023-04-03T02:20:42;3.50;99.90
5848;DHT22;8756;49.29324300;8.70599800;2023-04-03T02:23:09;3.40;99.90
5848;DHT22;8756;49.29324300;8.70599800;2023-04-03T02:25:35;3.40;99.90
5848;DHT22;8756;49.29324300;8.70599800;2023-04-03T02:28:00;3.40;99.90
5848;DHT22;8756;49.29324300;8.70599800;2023-04-03T02:30:26;3.40;99.90
5848;DHT22;8756;49.29324300;8.70599800;2023-04-03T02:32:52;3.40;99.90
5848;DHT22;8756;49.29324300;8.70599800;2023-04-03T02:35:18;3.40;99.90
5848;DHT22;8756;49.29324300;8.70599800;2023-04-03T02:37:44;3.40;99.90
5848;DHT22;8756;49.29324300;8.70599800;2023-04-03T02:40:10;3.40;99.90
5848;DHT22;8756;49.29324300;8.70599800;2023-04-03T02:42:36;3.40;99.90
5848;DHT22;8756;49.29324300;8.70599800;2023-04-03T02:45:02;3.40;99.90
5848;DHT22;8756;49.29324300;8.70599800;2023-04-03T02:47:28;3.40;99.90
5848;DHT22;8756;49.29324300;8.70599800;2023-04-03T02:49:54;3.40;99.90
5848;DHT22;8756;49.29324300;8.70599800;2023-04-03T02:52:20;3.40;99.90
5848;DHT22;8756;49.29324300;8.70599800;2023-04-03T02:54:46;3.40;99.90
5848;DHT22;8756;49.29324300;8.70599800;2023-04-03T02:57:11;3.50;99.90
5848;DHT22;8756;49.29324300;8.70599800;2023-04-03T02:59:37;3.50;99.90
5848;DHT22;8756;49.29324300;8.70599800;2023-04-03T03:02:09;3.50;99.90
5848;DHT22;8756;49.29324300;8.70599800;2023-04-03T03:04:35;3.50;99.90
5848;DHT22;8756;49.29324300;8.70599800;2023-04-03T03:07:02;3.50;99.90
5848;DHT22;8756;49.29324300;8.70599800;2023-04-03T03:09:28;3.60;99.90
5848;DHT22;8756;49.29324300;8.70599800;2023-04-03T03:11:55;3.60;99.90
5848;DHT22;8756;49.29324300;8.70599800;2023-04-03T03:14:21;3.70;99.90
5848;DHT22;8756;49.29324300;8.70599800;2023-04-03T03:16:47;3.70;99.90
5848;DHT22;8756;49.29324300;8.70599800;2023-04-03T03:19:13;3.70;99.90
5848;DHT22;8756;49.29324300;8.70599800;2023-04-03T03:21:39;3.80;99.90
5848;DHT22;8756;49.29324300;8.70599800;2023-04-03T03:24:04;3.80;99.90
5848;DHT22;8756;49.29324300;8.70599800;2023-04-03T03:26:30;3.90;99.90
5848;DHT22;8756;49.29324300;8.70599800;2023-04-03T03:28:56;3.90;99.90
5848;DHT22;8756;49.29324300;8.70599800;2023-04-03T03:31:22;3.90;99.90
5848;DHT22;8756;49.29324300;8.70599800;2023-04-03T03:33:47;3.90;99.90
5848;DHT22;8756;49.29324300;8.70599800;2023-04-03T03:36:13;3.80;99.90
5848;DHT22;8756;49.29324300;8.70599800;2023-04-03T03:38:39;3.80;99.90
5848;DHT22;8756;49.29324300;8.70599800;2023-04-03T03:41:04;3.80;99.90
5848;DHT22;8756;49.29324300;8.70599800;2023-04-03T03:43:30;3.80;99.90
5848;DHT22;8756;49.29324300;8.70599800;2023-04-03T03:45:56;3.70;99.90
5848;DHT22;8756;49.29324300;8.70599800;2023-04-03T03:48:22;3.80;99.90
5848;DHT22;8756;49.29324300;8.70599800;2023-04-03T03:50:48;3.80;99.90
5848;DHT22;8756;49.29324300;8.70599800;2023-04-03T03:53:14;3.70;99.90
5848;DHT22;8756;49.29324300;8.70599800;2023-04-03T03:55:40;3.80;99.90
5848;DHT22;8756;49.29324300;8.70599800;2023-04-03T03:58:06;3.70;99.90
5848;DHT22;8756;49.29324300;8.70599800;2023-04-03T04:00:32;3.70;99.90
5848;DHT22;8756;49.29324300;8.70599800;2023-04-03T04:02:58;3.60;99.90
5848;DHT22;8756;49.29324300;8.70599800;2023-04-03T04:05:23;3.60;99.90
5848;DHT22;8756;49.29324300;8.70599800;2023-04-03T04:07:49;3.50;99.90
5848;DHT22;8756;49.29324300;8.70599800;2023-04-03T04:10:15;3.50;99.90
5848;DHT22;8756;49.29324300;8.70599800;2023-04-03T04:12:41;3.50;99.90
5848;DHT22;8756;49.29324300;8.70599800;2023-04-03T04:15:07;3.50;99.90
5848;DHT22;8756;49.29324300;8.70599800;2023-04-03T04:17:33;3.40;99.90
5848;DHT22;8756;49.29324300;8.70599800;2023-04-03T04:20:01;3.40;99.90
5848;DHT22;8756;49.29324300;8.70599800;2023-04-03T04:22:28;3.40;99.90
5848;DHT22;8756;49.29324300;8.70599800;2023-04-03T04:24:53;3.40;99.90
5848;DHT22;8756;49.29324300;8.70599800;2023-04-03T04:27:19;3.40;99.90
5848;DHT22;8756;49.29324300;8.70599800;2023-04-03T04:29:45;3.40;99.90
5848;DHT22;8756;49.29324300;8.70599800;2023-04-03T04:32:10;3.40;99.90
5848;DHT22;8756;49.29324300;8.70599800;2023-04-03T04:34:36;3.40;99.90
5848;DHT22;8756;49.29324300;8.70599800;2023-04-03T04:37:02;3.30;99.90
5848;DHT22;8756;49.29324300;8.70599800;2023-04-03T04:39:28;3.30;99.90
5848;DHT22;8756;49.29324300;8.70599800;2023-04-03T04:41:54;3.20;99.90
5848;DHT22;8756;49.29324300;8.70599800;2023-04-03T04:44:19;3.20;99.90
5848;DHT22;8756;49.29324300;8.70599800;2023-04-03T04:46:45;3.20;99.90
5848;DHT22;8756;49.29324300;8.70599800;2023-04-03T04:49:11;3.20;99.90
5848;DHT22;8756;49.29324300;8.70599800;2023-04-03T04:51:37;3.20;99.90
5848;DHT22;8756;49.29324300;8.70599800;2023-04-03T04:54:02;3.20;99.90
5848;DHT22;8756;49.29324300;8.70599800;2023-04-03T04:56:28;3.20;99.90
5848;DHT22;8756;49.29324300;8.70599800;2023-04-03T04:58:54;3.20;99.90
5848;DHT22;8756;49.29324300;8.70599800;2023-04-03T05:01:19;3.20;99.90
5848;DHT22;8756;49.29324300;8.70599800;2023-04-03T05:03:45;3.20;99.90
5848;DHT22;8756;49.29324300;8.70599800;2023-04-03T05:06:13;3.20;99.90
5848;DHT22;8756;49.29324300;8.70599800;2023-04-03T05:08:38;3.20;99.90
5848;DHT22;8756;49.29324300;8.70599800;2023-04-03T05:11:04;3.10;99.90
5848;DHT22;8756;49.29324300;8.70599800;2023-04-03T05:13:30;3.10;99.90
5848;DHT22;8756;49.29324300;8.70599800;2023-04-03T05:15:55;3.10;99.90
5848;DHT22;8756;49.29324300;8.70599800;2023-04-03T05:18:21;3.10;99.90
5848;DHT22;8756;49.29324300;8.70599800;2023-04-03T05:20:49;3.10;99.90
5848;DHT22;8756;49.29324300;8.70599800;2023-04-03T05:23:16;3.10;99.90
5848;DHT22;8756;49.29324300;8.70599800;2023-04-03T05:25:41;3.10;99.90
5848;DHT22;8756;49.29324300;8.70599800;2023-04-03T05:28:09;3.10;99.90
5848;DHT22;8756;49.29324300;8.70599800;2023-04-03T05:30:35;3.10;99.90
5848;DHT22;8756;49.29324300;8.70599800;2023-04-03T05:33:03;3.10;99.90
5848;DHT22;8756;49.29324300;8.70599800;2023-04-03T05:35:29;3.10;99.90
5848;DHT22;8756;49.29324300;8.70599800;2023-04-03T05:37:55;3.00;99.90
5848;DHT22;8756;49.29324300;8.70599800;2023-04-03T05:40:21;2.90;99.90
5848;DHT22;8756;49.29324300;8.70599800;2023-04-03T05:42:47;2.90;99.90
5848;DHT22;8756;49.29324300;8.70599800;2023-04-03T05:45:12;2.90;99.90
5848;DHT22;8756;49.29324300;8.70599800;2023-04-03T05:47:38;2.90;99.90
5848;DHT22;8756;49.29324300;8.70599800;2023-04-03T05:50:04;2.90;99.90
5848;DHT22;8756;49.29324300;8.70599800;2023-04-03T05:52:33;2.90;99.90
5848;DHT22;8756;49.29324300;8.70599800;2023-04-03T05:55:04;2.90;99.90
5848;DHT22;8756;49.29324300;8.70599800;2023-04-03T05:57:30;3.00;99.90
5848;DHT22;8756;49.29324300;8.70599800;2023-04-03T05:59:56;3.10;99.90
5848;DHT22;8756;49.29324300;8.70599800;2023-04-03T06:02:23;3.10;99.90
5848;DHT22;8756;49.29324300;8.70599800;2023-04-03T06:04:50;3.20;99.90
5848;DHT22;8756;49.29324300;8.70599800;2023-04-03T06:07:21;3.20;99.90
5848;DHT22;8756;49.29324300;8.70599800;2023-04-03T06:09:49;3.30;99.90
5848;DHT22;8756;49.29324300;8.70599800;2023-04-03T06:12:16;3.40;99.90
5848;DHT22;8756;49.29324300;8.70599800;2023-04-03T06:14:42;3.40;99.90
5848;DHT22;8756;49.29324300;8.70599800;2023-04-03T06:17:08;3.50;99.90
5848;DHT22;8756;49.29324300;8.70599800;2023-04-03T06:19:35;3.50;99.90
5848;DHT22;8756;49.29324300;8.70599800;2023-04-03T06:22:01;3.60;99.90
5848;DHT22;8756;49.29324300;8.70599800;2023-04-03T06:24:28;3.60;99.90
5848;DHT22;8756;49.29324300;8.70599800;2023-04-03T06:26:54;3.80;99.90
5848;DHT22;8756;49.29324300;8.70599800;2023-04-03T06:29:21;3.90;99.90
5848;DHT22;8756;49.29324300;8.70599800;2023-04-03T06:31:48;4.00;99.90
5848;DHT22;8756;49.29324300;8.70599800;2023-04-03T06:34:14;4.10;99.90
5848;DHT22;8756;49.29324300;8.70599800;2023-04-03T06:36:41;4.30;99.90
5848;DHT22;8756;49.29324300;8.70599800;2023-04-03T06:39:08;4.40;99.90
5848;DHT22;8756;49.29324300;8.70599800;2023-04-03T06:41:34;4.50;99.90
5848;DHT22;8756;49.29324300;8.70599800;2023-04-03T06:44:00;4.60;99.90
5848;DHT22;8756;49.29324300;8.70599800;2023-04-03T06:46:26;4.70;99.90
5848;DHT22;8756;49.29324300;8.70599800;2023-04-03T06:48:53;4.90;99.90
5848;DHT22;8756;49.29324300;8.70599800;2023-04-03T06:51:27;4.90;99.90
5848;DHT22;8756;49.29324300;8.70599800;2023-04-03T06:53:55;5.00;99.90
5848;DHT22;8756;49.29324300;8.70599800;2023-04-03T06:56:23;5.10;99.90
5848;DHT22;8756;49.29324300;8.70599800;2023-04-03T06:58:51;5.20;99.90
5848;DHT22;8756;49.29324300;8.70599800;2023-04-03T07:01:17;5.30;99.90
5848;DHT22;8756;49.29324300;8.70599800;2023-04-03T07:03:47;5.40;99.90
5848;DHT22;8756;49.29324300;8.70599800;2023-04-03T07:06:15;5.50;99.90
5848;DHT22;8756;49.29324300;8.70599800;2023-04-03T07:08:41;5.50;99.90
5848;DHT22;8756;49.29324300;8.70599800;2023-04-03T07:11:08;5.60;99.90
5848;DHT22;8756;49.29324300;8.70599800;2023-04-03T07:13:34;5.60;99.90
5848;DHT22;8756;49.29324300;8.70599800;2023-04-03T07:16:00;5.70;99.90
5848;DHT22;8756;49.29324300;8.70599800;2023-04-03T07:18:27;5.70;99.90
5848;DHT22;8756;49.29324300;8.70599800;2023-04-03T07:20:53;5.70;99.90
5848;DHT22;8756;49.29324300;8.70599800;2023-04-03T07:23:19;5.70;99.90
5848;DHT22;8756;49.29324300;8.70599800;2023-04-03T07:25:46;5.60;99.90
5848;DHT22;8756;49.29324300;8.70599800;2023-04-03T07:28:13;5.60;99.90
5848;DHT22;8756;49.29324300;8.70599800;2023-04-03T07:30:52;5.60;99.90
5848;DHT22;8756;49.29324300;8.70599800;2023-04-03T07:33:21;5.60;99.90
5848;DHT22;8756;49.29324300;8.70599800;2023-04-03T07:35:48;5.60;99.90
5848;DHT22;8756;49.29324300;8.70599800;2023-04-03T07:38:14;5.50;99.90
5848;DHT22;8756;49.29324300;8.70599800;2023-04-03T07:40:46;5.50;99.90
5848;DHT22;8756;49.29324300;8.70599800;2023-04-03T07:43:13;5.60;99.90
5848;DHT22;8756;49.29324300;8.70599800;2023-04-03T07:45:39;5.60;99.90
5848;DHT22;8756;49.29324300;8.70599800;2023-04-03T07:48:05;5.60;99.90
5848;DHT22;8756;49.29324300;8.70599800;2023-04-03T07:50:30;5.60;99.90
5848;DHT22;8756;49.29324300;8.70599800;2023-04-03T07:52:57;5.60;99.90
5848;DHT22;8756;49.29324300;8.70599800;2023-04-03T07:55:24;5.60;99.90
5848;DHT22;8756;49.29324300;8.70599800;2023-04-03T07:57:50;5.60;99.90
5848;DHT22;8756;49.29324300;8.70599800;2023-04-03T08:00:17;5.70;99.90
5848;DHT22;8756;49.29324300;8.70599800;2023-04-03T08:02:44;5.70;99.90
5848;DHT22;8756;49.29324300;8.70599800;2023-04-03T08:05:10;5.80;99.90
5848;DHT22;8756;49.29324300;8.70599800;2023-04-03T08:07:37;5.80;99.90
5848;DHT22;8756;49.29324300;8.70599800;2023-04-03T08:10:03;5.80;99.90
5848;DHT22;8756;49.29324300;8.70599800;2023-04-03T08:12:30;5.80;99.90
5848;DHT22;8756;49.29324300;8.70599800;2023-04-03T08:14:57;5.90;99.90
5848;DHT22;8756;49.29324300;8.70599800;2023-04-03T08:17:25;5.90;99.90
5848;DHT22;8756;49.29324300;8.70599800;2023-04-03T08:19:51;5.90;99.90
5848;DHT22;8756;49.29324300;8.70599800;2023-04-03T08:22:17;6.00;99.90
5848;DHT22;8756;49.29324300;8.70599800;2023-04-03T08:24:42;6.00;99.90
5848;DHT22;8756;49.29324300;8.70599800;2023-04-03T08:27:08;6.00;99.90
5848;DHT22;8756;49.29324300;8.70599800;2023-04-03T08:29:34;6.00;99.90
5848;DHT22;8756;49.29324300;8.70599800;2023-04-03T08:31:59;6.00;99.90
5848;DHT22;8756;49.29324300;8.70599800;2023-04-03T08:34:25;6.00;99.90
5848;DHT22;8756;49.29324300;8.70599800;2023-04-03T08:36:51;6.10;99.90
5848;DHT22;8756;49.29324300;8.70599800;2023-04-03T08:39:17;6.10;99.90
5848;DHT22;8756;49.29324300;8.70599800;2023-04-03T08:41:44;6.10;99.90
5848;DHT22;8756;49.29324300;8.70599800;2023-04-03T08:44:24;6.20;99.90
5848;DHT22;8756;49.29324300;8.70599800;2023-04-03T08:47:18;6.30;99.90
5848;DHT22;8756;49.29324300;8.70599800;2023-04-03T08:49:57;6.40;99.90
5848;DHT22;8756;49.29324300;8.70599800;2023-04-03T08:52:57;6.50;99.90
5848;DHT22;8756;49.29324300;8.70599800;2023-04-03T08:55:39;6.60;99.90
5848;DHT22;8756;49.29324300;8.70599800;2023-04-03T08:58:30;6.70;99.90
5848;DHT22;8756;49.29324300;8.70599800;2023-04-03T09:01:21;6.70;99.90
5848;DHT22;8756;49.29324300;8.70599800;2023-04-03T09:04:15;6.80;99.90
5848;DHT22;8756;49.29324300;8.70599800;2023-04-03T09:06:55;6.90;99.90
5848;DHT22;8756;49.29324300;8.70599800;2023-04-03T09:09:40;7.00;99.90
5848;DHT22;8756;49.29324300;8.70599800;2023-04-03T09:12:23;7.00;99.90
5848;DHT22;8756;49.29324300;8.70599800;2023-04-03T09:14:57;7.00;99.90
5848;DHT22;8756;49.29324300;8.70599800;2023-04-03T09:20:34;7.00;99.90
5848;DHT22;8756;49.29324300;8.70599800;2023-04-03T09:23:11;7.00;99.90
5848;DHT22;8756;49.29324300;8.70599800;2023-04-03T09:25:50;7.00;99.90
5848;DHT22;8756;49.29324300;8.70599800;2023-04-03T09:28:16;7.00;99.90
5848;DHT22;8756;49.29324300;8.70599800;2023-04-03T09:30:42;7.10;99.90
5848;DHT22;8756;49.29324300;8.70599800;2023-04-03T09:33:09;7.10;99.90
5848;DHT22;8756;49.29324300;8.70599800;2023-04-03T09:35:36;7.10;99.90
5848;DHT22;8756;49.29324300;8.70599800;2023-04-03T09:40:43;7.20;99.90
5848;DHT22;8756;49.29324300;8.70599800;2023-04-03T09:45:46;7.30;99.90
5848;DHT22;8756;49.29324300;8.70599800;2023-04-03T09:53:28;7.40;99.90
5848;DHT22;8756;49.29324300;8.70599800;2023-04-03T09:55:54;7.40;99.90
5848;DHT22;8756;49.29324300;8.70599800;2023-04-03T09:58:25;7.40;99.90
5848;DHT22;8756;49.29324300;8.70599800;2023-04-03T10:01:01;7.40;99.90
5848;DHT22;8756;49.29324300;8.70599800;2023-04-03T10:03:36;7.40;99.90
5848;DHT22;8756;49.29324300;8.70599800;2023-04-03T10:06:21;7.50;99.90
5848;DHT22;8756;49.29324300;8.70599800;2023-04-03T10:09:00;7.60;99.90
5848;DHT22;8756;49.29324300;8.70599800;2023-04-03T10:11:28;7.80;99.90
5848;DHT22;8756;49.29324300;8.70599800;2023-04-03T10:13:59;7.80;99.90
5848;DHT22;8756;49.29324300;8.70599800;2023-04-03T10:16:36;7.80;99.90
5848;DHT22;8756;49.29324300;8.70599800;2023-04-03T10:22:07;7.90;99.90
5848;DHT22;8756;49.29324300;8.70599800;2023-04-03T10:28:23;7.80;99.90
5848;DHT22;8756;49.29324300;8.70599800;2023-04-03T10:30:47;7.80;99.90
5848;DHT22;8756;49.29324300;8.70599800;2023-04-03T10:33:25;7.70;99.90
5848;DHT22;8756;49.29324300;8.70599800;2023-04-03T10:36:29;7.70;99.90
5848;DHT22;8756;49.29324300;8.70599800;2023-04-03T10:41:53;7.70;99.90
5848;DHT22;8756;49.29324300;8.70599800;2023-04-03T10:47:41;7.70;99.90
5848;DHT22;8756;49.29324300;8.70599800;2023-04-03T10:53:35;7.70;99.90
5848;DHT22;8756;49.29324300;8.70599800;2023-04-03T10:56:17;7.70;99.90
5848;DHT22;8756;49.29324300;8.70599800;2023-04-03T11:02:07;7.60;99.90
5848;DHT22;8756;49.29324300;8.70599800;2023-04-03T11:04:42;7.50;99.90
5848;DHT22;8756;49.29324300;8.70599800;2023-04-03T11:07:38;7.50;99.90
5848;DHT22;8756;49.29324300;8.70599800;2023-04-03T11:10:23;7.50;99.90
5848;DHT22;8756;49.29324300;8.70599800;2023-04-03T11:13:09;7.50;99.90
5848;DHT22;8756;49.29324300;8.70599800;2023-04-03T11:15:38;7.50;99.90
5848;DHT22;8756;49.29324300;8.70599800;2023-04-03T11:18:16;7.40;99.90
5848;DHT22;8756;49.29324300;8.70599800;2023-04-03T11:20:53;7.40;99.90
5848;DHT22;8756;49.29324300;8.70599800;2023-04-03T11:23:26;7.50;99.90
5848;DHT22;8756;49.29324300;8.70599800;2023-04-03T11:25:55;7.40;99.90
5848;DHT22;8756;49.29324300;8.70599800;2023-04-03T11:28:25;7.50;99.90
5848;DHT22;8756;49.29324300;8.70599800;2023-04-03T11:38:45;7.80;99.90
5848;DHT22;8756;49.29324300;8.70599800;2023-04-03T11:41:13;7.70;99.90
5848;DHT22;8756;49.29324300;8.70599800;2023-04-03T11:46:49;7.70;99.90
5848;DHT22;8756;49.29324300;8.70599800;2023-04-03T11:49:54;7.50;99.90
5848;DHT22;8756;49.29324300;8.70599800;2023-04-03T12:16:34;7.50;99.90
5848;DHT22;8756;49.29324300;8.70599800;2023-04-03T12:24:28;7.60;99.90
5848;DHT22;8756;49.29324300;8.70599800;2023-04-03T12:29:47;7.70;99.90
5848;DHT22;8756;49.29324300;8.70599800;2023-04-03T12:35:39;7.90;99.90
5848;DHT22;8756;49.29324300;8.70599800;2023-04-03T12:44:55;7.90;99.90
5848;DHT22;8756;49.29324300;8.70599800;2023-04-03T12:47:32;7.90;99.90
5848;DHT22;8756;49.29324300;8.70599800;2023-04-03T12:50:03;7.80;99.90
5848;DHT22;8756;49.29324300;8.70599800;2023-04-03T12:52:41;7.80;99.90
5848;DHT22;8756;49.29324300;8.70599800;2023-04-03T12:55:16;7.80;99.90
5848;DHT22;8756;49.29324300;8.70599800;2023-04-03T12:57:43;7.80;99.90
5848;DHT22;8756;49.29324300;8.70599800;2023-04-03T13:00:30;7.70;99.90
5848;DHT22;8756;49.29324300;8.70599800;2023-04-03T13:02:59;7.70;99.90
5848;DHT22;8756;49.29324300;8.70599800;2023-04-03T13:05:26;7.80;99.90
5848;DHT22;8756;49.29324300;8.70599800;2023-04-03T13:07:59;7.90;99.90
5848;DHT22;8756;49.29324300;8.70599800;2023-04-03T13:10:29;8.00;99.90
5848;DHT22;8756;49.29324300;8.70599800;2023-04-03T13:12:57;8.00;99.90
5848;DHT22;8756;49.29324300;8.70599800;2023-04-03T13:15:30;8.00;99.90
5848;DHT22;8756;49.29324300;8.70599800;2023-04-03T13:18:22;7.90;99.90
5848;DHT22;8756;49.29324300;8.70599800;2023-04-03T13:21:22;7.90;99.90
5848;DHT22;8756;49.29324300;8.70599800;2023-04-03T13:23:52;7.90;99.90
5848;DHT22;8756;49.29324300;8.70599800;2023-04-03T13:26:24;8.00;99.90
5848;DHT22;8756;49.29324300;8.70599800;2023-04-03T13:28:59;8.10;99.90
5848;DHT22;8756;49.29324300;8.70599800;2023-04-03T13:31:31;8.10;99.90
5848;DHT22;8756;49.29324300;8.70599800;2023-04-03T13:34:12;8.10;99.90
5848;DHT22;8756;49.29324300;8.70599800;2023-04-03T13:36:40;8.00;99.90
5848;DHT22;8756;49.29324300;8.70599800;2023-04-03T13:41:40;8.00;99.90
5848;DHT22;8756;49.29324300;8.70599800;2023-04-03T13:46:53;8.10;99.90
5848;DHT22;8756;49.29324300;8.70599800;2023-04-03T13:49:21;8.00;99.90
5848;DHT22;8756;49.29324300;8.70599800;2023-04-03T13:52:28;8.00;99.90
5848;DHT22;8756;49.29324300;8.70599800;2023-04-03T13:57:56;8.20;99.90
5848;DHT22;8756;49.29324300;8.70599800;2023-04-03T14:00:48;8.20;99.90
5848;DHT22;8756;49.29324300;8.70599800;2023-04-03T14:03:24;8.30;99.90
5848;DHT22;8756;49.29324300;8.70599800;2023-04-03T14:05:51;8.30;99.90
5848;DHT22;8756;49.29324300;8.70599800;2023-04-03T14:08:18;8.30;99.90
5848;DHT22;8756;49.29324300;8.70599800;2023-04-03T14:10:45;8.40;99.90
5848;DHT22;8756;49.29324300;8.70599800;2023-04-03T14:13:14;8.40;99.90
5848;DHT22;8756;49.29324300;8.70599800;2023-04-03T14:15:41;8.50;99.90
5848;DHT22;8756;49.29324300;8.70599800;2023-04-03T14:18:11;8.60;99.90
5848;DHT22;8756;49.29324300;8.70599800;2023-04-03T14:20:38;8.60;99.90
5848;DHT22;8756;49.29324300;8.70599800;2023-04-03T14:23:04;8.50;99.90
5848;DHT22;8756;49.29324300;8.70599800;2023-04-03T14:25:30;8.40;99.90
5848;DHT22;8756;49.29324300;8.70599800;2023-04-03T14:27:56;8.40;99.90
5848;DHT22;8756;49.29324300;8.70599800;2023-04-03T14:30:33;8.40;99.90
5848;DHT22;8756;49.29324300;8.70599800;2023-04-03T14:33:00;8.40;99.90
5848;DHT22;8756;49.29324300;8.70599800;2023-04-03T14:35:26;8.40;99.90
5848;DHT22;8756;49.29324300;8.70599800;2023-04-03T14:37:53;8.40;99.90
5848;DHT22;8756;49.29324300;8.70599800;2023-04-03T14:40:25;8.40;99.90
5848;DHT22;8756;49.29324300;8.70599800;2023-04-03T14:42:52;8.30;99.90
5848;DHT22;8756;49.29324300;8.70599800;2023-04-03T14:45:21;8.30;99.90
5848;DHT22;8756;49.29324300;8.70599800;2023-04-03T14:47:52;8.30;99.90
5848;DHT22;8756;49.29324300;8.70599800;2023-04-03T14:50:26;8.30;99.90
5848;DHT22;8756;49.29324300;8.70599800;2023-04-03T14:52:54;8.30;99.90
5848;DHT22;8756;49.29324300;8.70599800;2023-04-03T14:55:23;8.30;99.90
5848;DHT22;8756;49.29324300;8.70599800;2023-04-03T14:57:50;8.30;99.90
5848;DHT22;8756;49.29324300;8.70599800;2023-04-03T15:00:18;8.30;99.90
5848;DHT22;8756;49.29324300;8.70599800;2023-04-03T15:02:46;8.30;99.90
5848;DHT22;8756;49.29324300;8.70599800;2023-04-03T15:05:14;8.30;99.90
5848;DHT22;8756;49.29324300;8.70599800;2023-04-03T15:07:49;8.30;99.90
5848;DHT22;8756;49.29324300;8.70599800;2023-04-03T15:10:20;8.30;99.90
5848;DHT22;8756;49.29324300;8.70599800;2023-04-03T15:12:49;8.30;99.90
5848;DHT22;8756;49.29324300;8.70599800;2023-04-03T15:15:17;8.20;99.90
5848;DHT22;8756;49.29324300;8.70599800;2023-04-03T15:17:45;8.20;99.90
5848;DHT22;8756;49.29324300;8.70599800;2023-04-03T15:20:15;8.20;99.90
5848;DHT22;8756;49.29324300;8.70599800;2023-04-03T15:22:43;8.30;99.90
5848;DHT22;8756;49.29324300;8.70599800;2023-04-03T15:25:09;8.30;99.90
5848;DHT22;8756;49.29324300;8.70599800;2023-04-03T15:27:35;8.30;99.90
5848;DHT22;8756;49.29324300;8.70599800;2023-04-03T15:30:03;8.30;99.90
5848;DHT22;8756;49.29324300;8.70599800;2023-04-03T15:32:30;8.30;99.90
5848;DHT22;8756;49.29324300;8.70599800;2023-04-03T15:34:56;8.30;99.90
5848;DHT22;8756;49.29324300;8.70599800;2023-04-03T15:37:22;8.30;99.90
5848;DHT22;8756;49.29324300;8.70599800;2023-04-03T15:39:48;8.30;99.90
5848;DHT22;8756;49.29324300;8.70599800;2023-04-03T15:42:14;8.30;99.90
5848;DHT22;8756;49.29324300;8.70599800;2023-04-03T15:44:40;8.30;99.90
5848;DHT22;8756;49.29324300;8.70599800;2023-04-03T15:47:06;8.30;99.90